sensor_id;sensor_type;location;lat;lon;timestamp;P1;durP1;ratioP1;P2;durP2;ratioP2
56991;SDS011;42885;49.754;18.636;2024-03-08T00:02:52;58.68;;;36.93;;
56991;SDS011;42885;49.754;18.636;2024-03-08T00:05:42;53.40;;;36.93;;
56991;SDS011;42885;49.754;18.636;2024-03-08T00:08:31;54.65;;;35.85;;
56991;SDS011;42885;49.754;18.636;2024-03-08T00:11:19;57.40;;;38.20;;
56991;SDS011;42885;49.754;18.636;2024-03-08T00:14:08;53.25;;;36.45;;
56991;SDS011;42885;49.754;18.636;2024-03-08T00:16:57;58.38;;;37.08;;
56991;SDS011;42885;49.754;18.636;2024-03-08T00:19:47;63.60;;;38.45;;
56991;SDS011;42885;49.754;18.636;2024-03-08T00:22:39;55.52;;;36.55;;
56991;SDS011;42885;49.754;18.636;2024-03-08T00:25:28;56.45;;;36.00;;
56991;SDS011;42885;49.754;18.636;2024-03-08T00:28:18;58.92;;;36.33;;
56991;SDS011;42885;49.754;18.636;2024-03-08T00:31:07;56.63;;;36.95;;
56991;SDS011;42885;49.754;18.636;2024-03-08T00:33:56;56.13;;;37.10;;
56991;SDS011;42885;49.754;18.636;2024-03-08T00:36:45;57.80;;;37.40;;
56991;SDS011;42885;49.754;18.636;2024-03-08T00:39:36;57.83;;;36.48;;
56991;SDS011;42885;49.754;18.636;2024-03-08T00:42:27;54.20;;;36.13;;
56991;SDS011;42885;49.754;18.636;2024-03-08T00:45:15;62.08;;;38.20;;
56991;SDS011;42885;49.754;18.636;2024-03-08T00:48:04;62.30;;;39.53;;
56991;SDS011;42885;49.754;18.636;2024-03-08T00:50:53;65.03;;;40.23;;
56991;SDS011;42885;49.754;18.636;2024-03-08T00:53:43;58.08;;;37.55;;
56991;SDS011;42885;49.754;18.636;2024-03-08T00:56:31;60.05;;;38.23;;
56991;SDS011;42885;49.754;18.636;2024-03-08T00:59:21;59.70;;;38.60;;
56991;SDS011;42885;49.754;18.636;2024-03-08T01:02:10;58.20;;;37.35;;
56991;SDS011;42885;49.754;18.636;2024-03-08T01:04:59;60.25;;;38.88;;
56991;SDS011;42885;49.754;18.636;2024-03-08T01:07:49;60.30;;;37.75;;
56991;SDS011;42885;49.754;18.636;2024-03-08T01:10:38;58.10;;;37.40;;
56991;SDS011;42885;49.754;18.636;2024-03-08T01:13:28;58.17;;;36.83;;
56991;SDS011;42885;49.754;18.636;2024-03-08T01:16:18;54.25;;;35.92;;
56991;SDS011;42885;49.754;18.636;2024-03-08T01:19:08;60.73;;;37.30;;
56991;SDS011;42885;49.754;18.636;2024-03-08T01:21:57;60.20;;;37.33;;
56991;SDS011;42885;49.754;18.636;2024-03-08T01:24:46;60.23;;;37.60;;
56991;SDS011;42885;49.754;18.636;2024-03-08T01:27:35;56.88;;;37.10;;
56991;SDS011;42885;49.754;18.636;2024-03-08T01:30:24;56.48;;;37.05;;
56991;SDS011;42885;49.754;18.636;2024-03-08T01:33:13;55.33;;;37.05;;
56991;SDS011;42885;49.754;18.636;2024-03-08T01:36:03;57.03;;;35.63;;
56991;SDS011;42885;49.754;18.636;2024-03-08T01:38:52;59.00;;;37.10;;
56991;SDS011;42885;49.754;18.636;2024-03-08T01:41:41;59.35;;;37.98;;
56991;SDS011;42885;49.754;18.636;2024-03-08T01:44:30;62.30;;;36.83;;
56991;SDS011;42885;49.754;18.636;2024-03-08T01:47:19;65.97;;;38.63;;
56991;SDS011;42885;49.754;18.636;2024-03-08T01:50:10;59.70;;;38.25;;
56991;SDS011;42885;49.754;18.636;2024-03-08T01:53:00;56.75;;;37.40;;
56991;SDS011;42885;49.754;18.636;2024-03-08T01:55:49;56.00;;;36.23;;
56991;SDS011;42885;49.754;18.636;2024-03-08T01:58:40;59.42;;;38.25;;
56991;SDS011;42885;49.754;18.636;2024-03-08T02:01:29;59.53;;;37.27;;
56991;SDS011;42885;49.754;18.636;2024-03-08T02:04:19;60.55;;;37.40;;
56991;SDS011;42885;49.754;18.636;2024-03-08T02:07:09;54.65;;;36.33;;
56991;SDS011;42885;49.754;18.636;2024-03-08T02:09:59;56.83;;;36.73;;
56991;SDS011;42885;49.754;18.636;2024-03-08T02:12:48;55.73;;;37.28;;
56991;SDS011;42885;49.754;18.636;2024-03-08T02:15:50;54.75;;;36.80;;
56991;SDS011;42885;49.754;18.636;2024-03-08T02:18:43;62.73;;;38.30;;
56991;SDS011;42885;49.754;18.636;2024-03-08T02:21:33;59.80;;;39.35;;
56991;SDS011;42885;49.754;18.636;2024-03-08T02:24:23;61.70;;;39.70;;
56991;SDS011;42885;49.754;18.636;2024-03-08T02:27:13;60.78;;;38.90;;
56991;SDS011;42885;49.754;18.636;2024-03-08T02:30:04;56.20;;;37.15;;
56991;SDS011;42885;49.754;18.636;2024-03-08T02:32:54;58.53;;;38.27;;
56991;SDS011;42885;49.754;18.636;2024-03-08T02:35:47;58.20;;;38.13;;
56991;SDS011;42885;49.754;18.636;2024-03-08T02:38:38;60.10;;;39.90;;
56991;SDS011;42885;49.754;18.636;2024-03-08T02:41:29;61.60;;;40.28;;
56991;SDS011;42885;49.754;18.636;2024-03-08T02:44:19;60.08;;;38.48;;
56991;SDS011;42885;49.754;18.636;2024-03-08T02:47:09;57.95;;;37.65;;
56991;SDS011;42885;49.754;18.636;2024-03-08T02:49:58;61.20;;;39.75;;
56991;SDS011;42885;49.754;18.636;2024-03-08T02:52:49;58.08;;;38.05;;
56991;SDS011;42885;49.754;18.636;2024-03-08T02:55:38;56.28;;;38.15;;
56991;SDS011;42885;49.754;18.636;2024-03-08T02:58:28;59.13;;;38.92;;
56991;SDS011;42885;49.754;18.636;2024-03-08T03:01:18;59.38;;;38.33;;
56991;SDS011;42885;49.754;18.636;2024-03-08T03:04:07;60.65;;;38.63;;
56991;SDS011;42885;49.754;18.636;2024-03-08T03:06:57;64.10;;;40.50;;
56991;SDS011;42885;49.754;18.636;2024-03-08T03:09:46;63.60;;;40.45;;
56991;SDS011;42885;49.754;18.636;2024-03-08T03:12:37;64.03;;;40.73;;
56991;SDS011;42885;49.754;18.636;2024-03-08T03:15:26;61.55;;;40.23;;
56991;SDS011;42885;49.754;18.636;2024-03-08T03:18:15;60.92;;;40.40;;
56991;SDS011;42885;49.754;18.636;2024-03-08T03:21:05;63.33;;;41.53;;
56991;SDS011;42885;49.754;18.636;2024-03-08T03:23:55;64.10;;;40.97;;
56991;SDS011;42885;49.754;18.636;2024-03-08T03:26:44;60.17;;;40.10;;
56991;SDS011;42885;49.754;18.636;2024-03-08T03:29:33;62.13;;;40.98;;
56991;SDS011;42885;49.754;18.636;2024-03-08T03:32:23;68.83;;;43.05;;
56991;SDS011;42885;49.754;18.636;2024-03-08T03:35:13;62.60;;;41.13;;
56991;SDS011;42885;49.754;18.636;2024-03-08T03:38:03;66.42;;;41.98;;
56991;SDS011;42885;49.754;18.636;2024-03-08T03:40:55;64.77;;;41.67;;
56991;SDS011;42885;49.754;18.636;2024-03-08T03:43:45;62.03;;;41.48;;
56991;SDS011;42885;49.754;18.636;2024-03-08T03:46:35;67.05;;;42.62;;
56991;SDS011;42885;49.754;18.636;2024-03-08T03:49:25;72.53;;;42.73;;
56991;SDS011;42885;49.754;18.636;2024-03-08T03:52:14;63.98;;;42.35;;
56991;SDS011;42885;49.754;18.636;2024-03-08T03:55:05;68.10;;;42.10;;
56991;SDS011;42885;49.754;18.636;2024-03-08T03:57:55;69.97;;;42.90;;
56991;SDS011;42885;49.754;18.636;2024-03-08T04:00:45;70.60;;;43.02;;
56991;SDS011;42885;49.754;18.636;2024-03-08T04:03:35;66.47;;;43.38;;
56991;SDS011;42885;49.754;18.636;2024-03-08T04:06:24;68.33;;;43.83;;
56991;SDS011;42885;49.754;18.636;2024-03-08T04:09:13;66.87;;;43.20;;
56991;SDS011;42885;49.754;18.636;2024-03-08T04:12:02;75.85;;;45.98;;
56991;SDS011;42885;49.754;18.636;2024-03-08T04:14:51;72.97;;;44.80;;
56991;SDS011;42885;49.754;18.636;2024-03-08T04:17:43;71.17;;;45.33;;
56991;SDS011;42885;49.754;18.636;2024-03-08T04:20:33;80.45;;;48.28;;
56991;SDS011;42885;49.754;18.636;2024-03-08T04:23:22;76.30;;;46.77;;
56991;SDS011;42885;49.754;18.636;2024-03-08T04:26:11;80.57;;;49.95;;
56991;SDS011;42885;49.754;18.636;2024-03-08T04:29:01;79.40;;;50.03;;
56991;SDS011;42885;49.754;18.636;2024-03-08T04:31:51;79.37;;;48.83;;
56991;SDS011;42885;49.754;18.636;2024-03-08T04:34:43;79.07;;;48.45;;
56991;SDS011;42885;49.754;18.636;2024-03-08T04:37:32;78.30;;;48.60;;
56991;SDS011;42885;49.754;18.636;2024-03-08T04:40:22;79.22;;;49.75;;
56991;SDS011;42885;49.754;18.636;2024-03-08T04:43:11;78.37;;;47.90;;
56991;SDS011;42885;49.754;18.636;2024-03-08T04:46:02;80.40;;;49.48;;
56991;SDS011;42885;49.754;18.636;2024-03-08T04:48:53;81.65;;;51.15;;
56991;SDS011;42885;49.754;18.636;2024-03-08T04:51:41;79.12;;;48.98;;
56991;SDS011;42885;49.754;18.636;2024-03-08T04:54:32;83.25;;;52.35;;
56991;SDS011;42885;49.754;18.636;2024-03-08T04:57:21;84.60;;;51.97;;
56991;SDS011;42885;49.754;18.636;2024-03-08T05:00:11;88.67;;;53.42;;
56991;SDS011;42885;49.754;18.636;2024-03-08T05:03:02;84.95;;;53.80;;
56991;SDS011;42885;49.754;18.636;2024-03-08T05:05:52;83.30;;;51.80;;
56991;SDS011;42885;49.754;18.636;2024-03-08T05:08:41;85.22;;;52.70;;
56991;SDS011;42885;49.754;18.636;2024-03-08T05:11:30;92.42;;;58.40;;
56991;SDS011;42885;49.754;18.636;2024-03-08T05:14:19;90.50;;;52.55;;
56991;SDS011;42885;49.754;18.636;2024-03-08T05:17:09;85.15;;;52.23;;
56991;SDS011;42885;49.754;18.636;2024-03-08T05:19:58;84.65;;;51.00;;
56991;SDS011;42885;49.754;18.636;2024-03-08T05:22:48;86.10;;;50.88;;
56991;SDS011;42885;49.754;18.636;2024-03-08T05:25:38;99.30;;;51.20;;
56991;SDS011;42885;49.754;18.636;2024-03-08T05:28:28;87.42;;;50.50;;
56991;SDS011;42885;49.754;18.636;2024-03-08T05:31:21;82.62;;;50.60;;
56991;SDS011;42885;49.754;18.636;2024-03-08T05:34:09;80.35;;;49.50;;
56991;SDS011;42885;49.754;18.636;2024-03-08T05:37:00;80.57;;;49.83;;
56991;SDS011;42885;49.754;18.636;2024-03-08T05:39:50;87.95;;;50.92;;
56991;SDS011;42885;49.754;18.636;2024-03-08T05:42:39;82.37;;;48.48;;
56991;SDS011;42885;49.754;18.636;2024-03-08T05:45:28;82.57;;;48.90;;
56991;SDS011;42885;49.754;18.636;2024-03-08T05:48:17;85.03;;;50.17;;
56991;SDS011;42885;49.754;18.636;2024-03-08T05:51:07;84.03;;;50.30;;
56991;SDS011;42885;49.754;18.636;2024-03-08T05:53:56;80.03;;;51.57;;
56991;SDS011;42885;49.754;18.636;2024-03-08T05:56:45;84.40;;;50.52;;
56991;SDS011;42885;49.754;18.636;2024-03-08T05:59:35;88.07;;;50.55;;
56991;SDS011;42885;49.754;18.636;2024-03-08T06:02:23;87.75;;;51.20;;
56991;SDS011;42885;49.754;18.636;2024-03-08T06:05:13;86.82;;;50.45;;
56991;SDS011;42885;49.754;18.636;2024-03-08T06:08:02;83.05;;;49.40;;
56991;SDS011;42885;49.754;18.636;2024-03-08T06:10:51;83.90;;;49.20;;
56991;SDS011;42885;49.754;18.636;2024-03-08T06:13:40;80.10;;;49.00;;
56991;SDS011;42885;49.754;18.636;2024-03-08T06:16:30;88.20;;;49.80;;
56991;SDS011;42885;49.754;18.636;2024-03-08T06:19:21;97.17;;;53.75;;
56991;SDS011;42885;49.754;18.636;2024-03-08T06:22:10;87.42;;;51.08;;
56991;SDS011;42885;49.754;18.636;2024-03-08T06:25:01;92.75;;;51.60;;
56991;SDS011;42885;49.754;18.636;2024-03-08T06:27:50;92.50;;;54.53;;
56991;SDS011;42885;49.754;18.636;2024-03-08T06:30:39;94.75;;;53.28;;
56991;SDS011;42885;49.754;18.636;2024-03-08T06:33:30;90.72;;;53.02;;
56991;SDS011;42885;49.754;18.636;2024-03-08T06:36:20;76.25;;;48.70;;
56991;SDS011;42885;49.754;18.636;2024-03-08T06:39:09;88.27;;;50.15;;
56991;SDS011;42885;49.754;18.636;2024-03-08T06:41:59;84.57;;;49.50;;
56991;SDS011;42885;49.754;18.636;2024-03-08T06:44:47;73.73;;;47.00;;
56991;SDS011;42885;49.754;18.636;2024-03-08T06:47:36;77.35;;;47.83;;
56991;SDS011;42885;49.754;18.636;2024-03-08T06:50:25;73.55;;;46.85;;
56991;SDS011;42885;49.754;18.636;2024-03-08T06:53:14;74.25;;;47.05;;
56991;SDS011;42885;49.754;18.636;2024-03-08T06:56:05;67.82;;;45.12;;
56991;SDS011;42885;49.754;18.636;2024-03-08T06:58:55;69.90;;;42.62;;
56991;SDS011;42885;49.754;18.636;2024-03-08T07:01:45;64.42;;;42.08;;
56991;SDS011;42885;49.754;18.636;2024-03-08T07:04:35;65.78;;;41.90;;
56991;SDS011;42885;49.754;18.636;2024-03-08T07:07:25;67.62;;;42.45;;
56991;SDS011;42885;49.754;18.636;2024-03-08T07:10:16;61.98;;;42.40;;
56991;SDS011;42885;49.754;18.636;2024-03-08T07:13:05;58.30;;;39.23;;
56991;SDS011;42885;49.754;18.636;2024-03-08T07:15:54;64.58;;;41.23;;
56991;SDS011;42885;49.754;18.636;2024-03-08T07:18:44;62.88;;;39.00;;
56991;SDS011;42885;49.754;18.636;2024-03-08T07:21:33;62.05;;;39.27;;
56991;SDS011;42885;49.754;18.636;2024-03-08T07:24:23;63.48;;;39.73;;
56991;SDS011;42885;49.754;18.636;2024-03-08T07:27:14;64.85;;;40.90;;
56991;SDS011;42885;49.754;18.636;2024-03-08T07:30:05;59.15;;;39.05;;
56991;SDS011;42885;49.754;18.636;2024-03-08T07:32:56;63.10;;;42.00;;
56991;SDS011;42885;49.754;18.636;2024-03-08T07:35:46;66.33;;;42.10;;
56991;SDS011;42885;49.754;18.636;2024-03-08T07:38:36;65.45;;;42.13;;
56991;SDS011;42885;49.754;18.636;2024-03-08T07:41:25;61.60;;;40.33;;
56991;SDS011;42885;49.754;18.636;2024-03-08T07:44:16;67.27;;;42.50;;
56991;SDS011;42885;49.754;18.636;2024-03-08T07:47:06;62.85;;;40.17;;
56991;SDS011;42885;49.754;18.636;2024-03-08T07:49:57;65.52;;;39.35;;
56991;SDS011;42885;49.754;18.636;2024-03-08T07:52:47;54.30;;;35.83;;
56991;SDS011;42885;49.754;18.636;2024-03-08T07:55:36;58.80;;;36.77;;
56991;SDS011;42885;49.754;18.636;2024-03-08T07:58:27;46.50;;;30.57;;
56991;SDS011;42885;49.754;18.636;2024-03-08T08:01:19;41.45;;;25.48;;
56991;SDS011;42885;49.754;18.636;2024-03-08T08:04:09;41.93;;;28.20;;
56991;SDS011;42885;49.754;18.636;2024-03-08T08:06:59;42.93;;;28.98;;
56991;SDS011;42885;49.754;18.636;2024-03-08T08:09:48;45.80;;;28.92;;
56991;SDS011;42885;49.754;18.636;2024-03-08T08:12:37;47.73;;;31.40;;
56991;SDS011;42885;49.754;18.636;2024-03-08T08:15:26;42.05;;;28.02;;
56991;SDS011;42885;49.754;18.636;2024-03-08T08:18:16;40.88;;;27.22;;
56991;SDS011;42885;49.754;18.636;2024-03-08T08:21:07;42.30;;;27.80;;
56991;SDS011;42885;49.754;18.636;2024-03-08T08:23:58;45.77;;;29.90;;
56991;SDS011;42885;49.754;18.636;2024-03-08T08:26:46;42.95;;;30.55;;
56991;SDS011;42885;49.754;18.636;2024-03-08T08:29:36;45.60;;;28.47;;
56991;SDS011;42885;49.754;18.636;2024-03-08T08:32:25;46.53;;;31.70;;
56991;SDS011;42885;49.754;18.636;2024-03-08T08:35:16;42.85;;;28.42;;
56991;SDS011;42885;49.754;18.636;2024-03-08T08:38:07;44.60;;;29.52;;
56991;SDS011;42885;49.754;18.636;2024-03-08T08:40:55;48.68;;;30.95;;
56991;SDS011;42885;49.754;18.636;2024-03-08T08:43:45;47.15;;;29.48;;
56991;SDS011;42885;49.754;18.636;2024-03-08T08:46:34;47.62;;;31.15;;
56991;SDS011;42885;49.754;18.636;2024-03-08T08:49:25;49.40;;;31.67;;
56991;SDS011;42885;49.754;18.636;2024-03-08T08:52:13;47.75;;;32.17;;
56991;SDS011;42885;49.754;18.636;2024-03-08T08:55:04;51.60;;;32.15;;
56991;SDS011;42885;49.754;18.636;2024-03-08T08:57:54;48.48;;;32.70;;
56991;SDS011;42885;49.754;18.636;2024-03-08T09:00:45;46.30;;;30.88;;
56991;SDS011;42885;49.754;18.636;2024-03-08T09:03:33;47.67;;;31.07;;
56991;SDS011;42885;49.754;18.636;2024-03-08T09:06:24;41.15;;;28.50;;
56991;SDS011;42885;49.754;18.636;2024-03-08T09:09:13;45.45;;;30.60;;
56991;SDS011;42885;49.754;18.636;2024-03-08T09:12:03;46.13;;;30.20;;
56991;SDS011;42885;49.754;18.636;2024-03-08T09:14:53;47.00;;;30.67;;
56991;SDS011;42885;49.754;18.636;2024-03-08T09:17:41;45.98;;;30.80;;
56991;SDS011;42885;49.754;18.636;2024-03-08T09:20:31;46.05;;;29.48;;
56991;SDS011;42885;49.754;18.636;2024-03-08T09:23:21;49.42;;;30.95;;
56991;SDS011;42885;49.754;18.636;2024-03-08T09:26:11;39.98;;;28.35;;
56991;SDS011;42885;49.754;18.636;2024-03-08T09:29:02;46.42;;;30.68;;
56991;SDS011;42885;49.754;18.636;2024-03-08T09:31:53;45.23;;;29.72;;
56991;SDS011;42885;49.754;18.636;2024-03-08T09:34:42;44.63;;;29.52;;
56991;SDS011;42885;49.754;18.636;2024-03-08T09:37:32;44.20;;;28.50;;
56991;SDS011;42885;49.754;18.636;2024-03-08T09:40:25;44.60;;;29.37;;
56991;SDS011;42885;49.754;18.636;2024-03-08T09:43:15;39.78;;;27.13;;
56991;SDS011;42885;49.754;18.636;2024-03-08T09:46:05;39.80;;;27.07;;
56991;SDS011;42885;49.754;18.636;2024-03-08T09:48:56;40.67;;;26.30;;
56991;SDS011;42885;49.754;18.636;2024-03-08T09:51:45;39.67;;;26.75;;
56991;SDS011;42885;49.754;18.636;2024-03-08T09:54:35;40.65;;;28.20;;
56991;SDS011;42885;49.754;18.636;2024-03-08T09:57:25;40.43;;;27.73;;
56991;SDS011;42885;49.754;18.636;2024-03-08T10:00:14;40.00;;;28.12;;
56991;SDS011;42885;49.754;18.636;2024-03-08T10:03:07;38.67;;;28.15;;
56991;SDS011;42885;49.754;18.636;2024-03-08T10:05:57;40.53;;;28.07;;
56991;SDS011;42885;49.754;18.636;2024-03-08T10:08:49;43.67;;;28.17;;
56991;SDS011;42885;49.754;18.636;2024-03-08T10:11:42;39.10;;;27.05;;
56991;SDS011;42885;49.754;18.636;2024-03-08T10:14:31;42.62;;;28.80;;
56991;SDS011;42885;49.754;18.636;2024-03-08T10:17:21;42.85;;;28.83;;
56991;SDS011;42885;49.754;18.636;2024-03-08T10:20:15;41.45;;;28.27;;
56991;SDS011;42885;49.754;18.636;2024-03-08T10:23:06;44.10;;;27.52;;
56991;SDS011;42885;49.754;18.636;2024-03-08T10:25:56;46.37;;;29.50;;
56991;SDS011;42885;49.754;18.636;2024-03-08T10:28:47;39.50;;;27.55;;
56991;SDS011;42885;49.754;18.636;2024-03-08T10:31:36;41.92;;;28.00;;
56991;SDS011;42885;49.754;18.636;2024-03-08T10:34:27;37.95;;;27.67;;
56991;SDS011;42885;49.754;18.636;2024-03-08T10:37:16;40.52;;;27.32;;
56991;SDS011;42885;49.754;18.636;2024-03-08T10:40:10;43.90;;;27.80;;
56991;SDS011;42885;49.754;18.636;2024-03-08T10:43:05;37.93;;;27.65;;
56991;SDS011;42885;49.754;18.636;2024-03-08T10:46:04;46.45;;;29.70;;
56991;SDS011;42885;49.754;18.636;2024-03-08T10:49:06;40.67;;;27.37;;
56991;SDS011;42885;49.754;18.636;2024-03-08T10:51:58;39.33;;;26.93;;
56991;SDS011;42885;49.754;18.636;2024-03-08T10:54:50;39.38;;;27.27;;
56991;SDS011;42885;49.754;18.636;2024-03-08T10:57:42;38.15;;;27.13;;
56991;SDS011;42885;49.754;18.636;2024-03-08T11:00:31;41.02;;;27.75;;
56991;SDS011;42885;49.754;18.636;2024-03-08T11:09:36;36.10;;;26.05;;
56991;SDS011;42885;49.754;18.636;2024-03-08T11:12:26;40.80;;;29.43;;
56991;SDS011;42885;49.754;18.636;2024-03-08T11:15:22;44.50;;;28.15;;
56991;SDS011;42885;49.754;18.636;2024-03-08T11:18:13;37.60;;;27.85;;
56991;SDS011;42885;49.754;18.636;2024-03-08T11:21:08;38.80;;;28.17;;
56991;SDS011;42885;49.754;18.636;2024-03-08T11:24:01;34.47;;;27.10;;
56991;SDS011;42885;49.754;18.636;2024-03-08T11:26:58;38.67;;;28.03;;
56991;SDS011;42885;49.754;18.636;2024-03-08T11:30:01;40.33;;;27.00;;
56991;SDS011;42885;49.754;18.636;2024-03-08T11:33:05;34.63;;;26.40;;
56991;SDS011;42885;49.754;18.636;2024-03-08T11:36:11;34.97;;;26.83;;
56991;SDS011;42885;49.754;18.636;2024-03-08T11:39:02;40.38;;;27.40;;
56991;SDS011;42885;49.754;18.636;2024-03-08T11:41:53;36.23;;;27.83;;
56991;SDS011;42885;49.754;18.636;2024-03-08T11:44:44;34.27;;;27.50;;
56991;SDS011;42885;49.754;18.636;2024-03-08T11:47:35;37.40;;;27.58;;
56991;SDS011;42885;49.754;18.636;2024-03-08T11:50:25;35.55;;;27.98;;
56991;SDS011;42885;49.754;18.636;2024-03-08T11:53:16;37.35;;;26.87;;
56991;SDS011;42885;49.754;18.636;2024-03-08T11:56:10;36.20;;;28.73;;
56991;SDS011;42885;49.754;18.636;2024-03-08T11:59:01;34.55;;;27.35;;
56991;SDS011;42885;49.754;18.636;2024-03-08T12:01:58;38.92;;;28.05;;
56991;SDS011;42885;49.754;18.636;2024-03-08T12:04:55;36.13;;;28.07;;
56991;SDS011;42885;49.754;18.636;2024-03-08T12:07:55;34.60;;;27.15;;
56991;SDS011;42885;49.754;18.636;2024-03-08T12:10:46;34.65;;;28.12;;
56991;SDS011;42885;49.754;18.636;2024-03-08T12:13:35;35.43;;;26.60;;
56991;SDS011;42885;49.754;18.636;2024-03-08T12:16:24;40.33;;;28.32;;
56991;SDS011;42885;49.754;18.636;2024-03-08T12:19:13;35.92;;;27.80;;
56991;SDS011;42885;49.754;18.636;2024-03-08T12:22:09;33.60;;;26.70;;
56991;SDS011;42885;49.754;18.636;2024-03-08T12:25:04;34.88;;;27.00;;
56991;SDS011;42885;49.754;18.636;2024-03-08T12:27:55;32.03;;;26.02;;
56991;SDS011;42885;49.754;18.636;2024-03-08T12:30:46;37.58;;;27.60;;
56991;SDS011;42885;49.754;18.636;2024-03-08T12:33:46;35.65;;;27.82;;
56991;SDS011;42885;49.754;18.636;2024-03-08T12:36:47;36.45;;;28.10;;
56991;SDS011;42885;49.754;18.636;2024-03-08T12:39:37;32.07;;;26.53;;
56991;SDS011;42885;49.754;18.636;2024-03-08T12:42:27;36.08;;;28.90;;
56991;SDS011;42885;49.754;18.636;2024-03-08T12:45:17;33.42;;;27.90;;
56991;SDS011;42885;49.754;18.636;2024-03-08T12:48:12;35.07;;;27.73;;
56991;SDS011;42885;49.754;18.636;2024-03-08T12:51:03;34.50;;;27.48;;
56991;SDS011;42885;49.754;18.636;2024-03-08T12:53:53;37.27;;;28.17;;
56991;SDS011;42885;49.754;18.636;2024-03-08T12:56:43;33.88;;;27.93;;
56991;SDS011;42885;49.754;18.636;2024-03-08T12:59:31;36.42;;;27.32;;
56991;SDS011;42885;49.754;18.636;2024-03-08T13:02:21;37.35;;;27.80;;
56991;SDS011;42885;49.754;18.636;2024-03-08T13:05:11;34.53;;;27.13;;
56991;SDS011;42885;49.754;18.636;2024-03-08T13:08:00;33.90;;;27.55;;
56991;SDS011;42885;49.754;18.636;2024-03-08T13:10:49;33.42;;;27.42;;
56991;SDS011;42885;49.754;18.636;2024-03-08T13:13:38;35.13;;;27.62;;
56991;SDS011;42885;49.754;18.636;2024-03-08T13:16:31;33.33;;;28.03;;
56991;SDS011;42885;49.754;18.636;2024-03-08T13:19:22;36.05;;;27.48;;
56991;SDS011;42885;49.754;18.636;2024-03-08T13:22:11;35.03;;;27.93;;
56991;SDS011;42885;49.754;18.636;2024-03-08T13:25:02;38.80;;;29.27;;
56991;SDS011;42885;49.754;18.636;2024-03-08T13:27:52;37.53;;;29.03;;
56991;SDS011;42885;49.754;18.636;2024-03-08T13:30:42;33.88;;;26.90;;
56991;SDS011;42885;49.754;18.636;2024-03-08T13:33:32;36.53;;;28.35;;
56991;SDS011;42885;49.754;18.636;2024-03-08T13:36:26;33.45;;;27.77;;
56991;SDS011;42885;49.754;18.636;2024-03-08T13:39:19;32.90;;;27.17;;
56991;SDS011;42885;49.754;18.636;2024-03-08T13:42:10;35.58;;;27.80;;
56991;SDS011;42885;49.754;18.636;2024-03-08T13:45:05;35.50;;;27.73;;
56991;SDS011;42885;49.754;18.636;2024-03-08T13:47:57;36.90;;;27.70;;
56991;SDS011;42885;49.754;18.636;2024-03-08T13:50:46;32.97;;;27.80;;
56991;SDS011;42885;49.754;18.636;2024-03-08T13:53:37;40.08;;;28.98;;
56991;SDS011;42885;49.754;18.636;2024-03-08T13:56:27;36.80;;;30.23;;
56991;SDS011;42885;49.754;18.636;2024-03-08T13:59:19;37.67;;;28.00;;
56991;SDS011;42885;49.754;18.636;2024-03-08T14:02:11;34.92;;;26.93;;
56991;SDS011;42885;49.754;18.636;2024-03-08T14:05:00;37.85;;;28.02;;
56991;SDS011;42885;49.754;18.636;2024-03-08T14:07:50;35.15;;;27.30;;
56991;SDS011;42885;49.754;18.636;2024-03-08T14:10:41;36.40;;;28.52;;
56991;SDS011;42885;49.754;18.636;2024-03-08T14:13:31;36.55;;;28.40;;
56991;SDS011;42885;49.754;18.636;2024-03-08T14:16:20;36.53;;;29.45;;
56991;SDS011;42885;49.754;18.636;2024-03-08T14:19:09;36.95;;;28.85;;
56991;SDS011;42885;49.754;18.636;2024-03-08T14:21:59;45.20;;;30.45;;
56991;SDS011;42885;49.754;18.636;2024-03-08T14:24:49;38.15;;;28.52;;
56991;SDS011;42885;49.754;18.636;2024-03-08T14:27:38;39.45;;;29.50;;
56991;SDS011;42885;49.754;18.636;2024-03-08T14:30:28;38.78;;;29.05;;
56991;SDS011;42885;49.754;18.636;2024-03-08T14:33:22;37.50;;;29.18;;
56991;SDS011;42885;49.754;18.636;2024-03-08T14:36:12;39.67;;;29.40;;
56991;SDS011;42885;49.754;18.636;2024-03-08T14:39:02;39.88;;;30.77;;
56991;SDS011;42885;49.754;18.636;2024-03-08T14:41:51;44.80;;;32.27;;
56991;SDS011;42885;49.754;18.636;2024-03-08T14:44:42;39.23;;;29.65;;
56991;SDS011;42885;49.754;18.636;2024-03-08T14:47:32;39.40;;;30.17;;
56991;SDS011;42885;49.754;18.636;2024-03-08T14:50:21;40.73;;;31.07;;
56991;SDS011;42885;49.754;18.636;2024-03-08T14:53:12;42.75;;;31.50;;
56991;SDS011;42885;49.754;18.636;2024-03-08T14:56:03;44.93;;;30.87;;
56991;SDS011;42885;49.754;18.636;2024-03-08T14:58:53;45.87;;;32.23;;
56991;SDS011;42885;49.754;18.636;2024-03-08T15:01:43;47.17;;;31.50;;
56991;SDS011;42885;49.754;18.636;2024-03-08T15:04:33;50.67;;;32.63;;
56991;SDS011;42885;49.754;18.636;2024-03-08T15:07:23;46.83;;;31.25;;
56991;SDS011;42885;49.754;18.636;2024-03-08T15:10:16;49.65;;;32.65;;
56991;SDS011;42885;49.754;18.636;2024-03-08T15:13:06;48.78;;;33.00;;
56991;SDS011;42885;49.754;18.636;2024-03-08T15:15:57;51.58;;;33.60;;
56991;SDS011;42885;49.754;18.636;2024-03-08T15:18:47;46.70;;;31.65;;
56991;SDS011;42885;49.754;18.636;2024-03-08T15:21:37;48.00;;;32.27;;
56991;SDS011;42885;49.754;18.636;2024-03-08T15:24:26;51.13;;;32.73;;
56991;SDS011;42885;49.754;18.636;2024-03-08T15:27:16;46.88;;;32.20;;
56991;SDS011;42885;49.754;18.636;2024-03-08T15:30:06;50.58;;;33.95;;
56991;SDS011;42885;49.754;18.636;2024-03-08T15:32:57;52.77;;;35.40;;
56991;SDS011;42885;49.754;18.636;2024-03-08T15:35:47;52.90;;;35.13;;
56991;SDS011;42885;49.754;18.636;2024-03-08T15:38:38;51.08;;;34.67;;
56991;SDS011;42885;49.754;18.636;2024-03-08T15:41:28;49.20;;;35.10;;
56991;SDS011;42885;49.754;18.636;2024-03-08T15:44:17;54.90;;;34.75;;
56991;SDS011;42885;49.754;18.636;2024-03-08T15:47:08;50.85;;;34.23;;
56991;SDS011;42885;49.754;18.636;2024-03-08T15:49:59;52.83;;;34.38;;
56991;SDS011;42885;49.754;18.636;2024-03-08T15:52:49;54.48;;;34.35;;
56991;SDS011;42885;49.754;18.636;2024-03-08T15:55:41;55.90;;;35.45;;
56991;SDS011;42885;49.754;18.636;2024-03-08T15:58:31;55.23;;;35.52;;
56991;SDS011;42885;49.754;18.636;2024-03-08T16:01:22;63.15;;;37.05;;
56991;SDS011;42885;49.754;18.636;2024-03-08T16:04:12;56.23;;;36.90;;
56991;SDS011;42885;49.754;18.636;2024-03-08T16:07:01;61.18;;;37.13;;
56991;SDS011;42885;49.754;18.636;2024-03-08T16:09:53;61.42;;;38.67;;
56991;SDS011;42885;49.754;18.636;2024-03-08T16:12:42;57.43;;;37.75;;
56991;SDS011;42885;49.754;18.636;2024-03-08T16:15:31;64.75;;;38.70;;
56991;SDS011;42885;49.754;18.636;2024-03-08T16:18:22;67.00;;;38.75;;
56991;SDS011;42885;49.754;18.636;2024-03-08T16:21:16;62.60;;;39.40;;
56991;SDS011;42885;49.754;18.636;2024-03-08T16:24:05;59.03;;;37.60;;
56991;SDS011;42885;49.754;18.636;2024-03-08T16:26:54;58.47;;;37.83;;
56991;SDS011;42885;49.754;18.636;2024-03-08T16:29:44;57.83;;;38.35;;